createdAt,value
2018-05-23T04:07:45.028Z,98244.41
2018-05-23T04:10:13.303Z,98238.66
2018-05-23T04:12:41.584Z,98245.64
2018-05-23T04:15:11.361Z,98241.89
2018-05-23T04:17:40.387Z,98240.75
2018-05-23T04:20:17.089Z,98246.91
2018-05-23T04:22:45.358Z,98247.19
2018-05-23T04:25:13.653Z,98246.34
2018-05-23T04:27:41.924Z,98249.13
2018-05-23T04:30:10.189Z,98251.50
2018-05-23T04:32:38.571Z,98254.31
2018-05-23T04:35:06.958Z,98262.42
2018-05-23T04:37:37.172Z,98260.55
2018-05-23T04:40:12.913Z,98268.97
2018-05-23T04:42:50.158Z,98271.67
2018-05-23T04:45:26.214Z,98271.27
2018-05-23T04:48:01.407Z,98272.27
2018-05-23T04:50:35.574Z,98274.86
2018-05-23T04:53:11.152Z,98271.60
2018-05-23T04:55:39.440Z,98272.65
2018-05-23T04:58:14.353Z,98276.04
2018-05-23T05:00:44.858Z,98288.02
2018-05-23T05:03:13.195Z,98295.53
2018-05-23T05:05:41.617Z,98295.55
2018-05-23T05:08:22.463Z,98296.11
2018-05-23T05:10:51.670Z,98305.65
2018-05-23T05:13:42.492Z,98303.75
2018-05-23T05:16:18.704Z,98307.19
2018-05-23T05:18:48.020Z,98309.44
2018-05-23T05:21:19.669Z,98318.98
2018-05-23T05:23:49.121Z,98317.23
2018-05-23T05:26:27.607Z,98316.37
2018-05-23T05:29:09.092Z,98312.69
2018-05-23T05:31:37.581Z,98317.33
2018-05-23T05:34:12.380Z,98324.40
2018-05-23T05:36:41.728Z,98323.91
2018-05-23T05:39:10.080Z,98330.20
2018-05-23T05:41:46.774Z,98327.66
2018-05-23T05:44:30.413Z,98330.55
2018-05-23T05:46:58.932Z,98332.67
2018-05-23T05:49:27.246Z,98335.23
2018-05-23T05:51:56.560Z,98335.47
2018-05-23T05:54:31.974Z,98339.22
2018-05-23T05:57:05.334Z,98347.39
2018-05-23T05:59:33.669Z,98347.00
2018-05-23T06:02:11.863Z,98352.18
2018-05-23T06:04:45.274Z,98351.22
2018-05-23T06:07:13.549Z,98356.21
2018-05-23T06:09:42.086Z,98359.08
2018-05-23T06:12:10.338Z,98369.23
2018-05-23T06:14:39.632Z,98370.34
2018-05-23T06:17:08.941Z,98375.62
2018-05-23T06:19:38.261Z,98367.39
2018-05-23T06:22:06.631Z,98376.79
2018-05-23T06:24:35.032Z,98376.18
2018-05-23T06:27:05.549Z,98372.45
2018-05-23T06:29:36.986Z,98374.33
2018-05-23T06:32:05.239Z,98378.01
2018-05-23T06:34:33.529Z,98380.52
2018-05-23T06:37:01.823Z,98378.08
2018-05-23T06:39:30.119Z,98384.75
2018-05-23T06:41:58.393Z,98386.06
2018-05-23T06:44:27.510Z,98381.73
2018-05-23T06:46:55.766Z,98382.05
2018-05-23T06:49:24.053Z,98386.06
2018-05-23T06:51:52.347Z,98391.03
2018-05-23T06:54:21.761Z,98390.30
2018-05-23T06:56:54.420Z,98398.03
2018-05-23T06:59:22.797Z,98396.88
2018-05-23T07:01:51.143Z,98399.05
2018-05-23T07:04:24.153Z,98398.64
2018-05-23T07:06:52.424Z,98410.77
2018-05-23T07:09:20.685Z,98412.39
2018-05-23T07:11:48.992Z,98421.06
2018-05-23T07:14:17.248Z,98426.45
2018-05-23T07:16:45.520Z,98426.28
2018-05-23T07:19:13.821Z,98423.51
2018-05-23T07:21:42.107Z,98428.08
2018-05-23T07:24:11.408Z,98429.91
2018-05-23T07:26:39.698Z,98423.98
2018-05-23T07:29:09.137Z,98430.55
2018-05-23T07:31:37.461Z,98429.73
2018-05-23T07:34:05.709Z,98429.60
2018-05-23T07:36:34.016Z,98433.02
2018-05-23T07:39:02.311Z,98430.04
2018-05-23T07:41:30.584Z,98422.07
2018-05-23T07:43:58.876Z,98425.46
2018-05-23T07:46:27.915Z,98434.48
2018-05-23T07:48:56.193Z,98429.89
2018-05-23T07:51:24.596Z,98432.71
2018-05-23T07:53:52.885Z,98429.23
2018-05-23T07:56:22.109Z,98434.78
2018-05-23T07:58:50.935Z,98434.41
2018-05-23T08:01:19.280Z,98433.00
2018-05-23T08:03:48.655Z,98428.95
2018-05-23T08:06:16.923Z,98431.08
2018-05-23T08:08:45.236Z,98433.16
2018-05-23T08:11:13.517Z,98435.75
2018-05-23T08:13:41.789Z,98429.41
2018-05-23T08:16:10.583Z,98432.98
2018-05-23T08:18:39.621Z,98434.05
2018-05-23T08:21:07.923Z,98434.27
2018-05-23T08:23:36.215Z,98437.89
2018-05-23T08:26:04.482Z,98435.30
2018-05-23T08:28:32.771Z,98428.31
2018-05-23T08:31:01.083Z,98430.23
2018-05-23T08:33:30.113Z,98428.93
2018-05-23T08:35:58.405Z,98428.23
2018-05-23T08:38:28.296Z,98428.59
2018-05-23T08:40:56.552Z,98422.50
2018-05-23T08:43:25.594Z,98427.02
2018-05-23T08:45:53.967Z,98430.90
2018-05-23T08:48:22.189Z,98433.94
2018-05-23T08:50:51.829Z,98442.69
2018-05-23T08:53:20.109Z,98441.77
2018-05-23T08:55:48.400Z,98443.48
2018-05-23T08:58:16.669Z,98449.13
2018-05-23T09:00:44.948Z,98450.69
2018-05-23T09:03:13.236Z,98446.55
2018-05-23T09:05:41.512Z,98457.91
2018-05-23T09:08:09.810Z,98452.77
2018-05-23T09:10:38.086Z,98447.69
2018-05-23T09:13:06.377Z,98451.78
2018-05-23T09:15:34.643Z,98448.97
2018-05-23T09:18:03.672Z,98453.86
2018-05-23T09:20:32.731Z,98450.18
2018-05-23T09:23:01.015Z,98449.42
2018-05-23T09:25:29.401Z,98459.23
2018-05-23T09:27:57.619Z,98462.05
2018-05-23T09:30:25.937Z,98458.77
2018-05-23T09:32:55.007Z,98462.94
2018-05-23T09:35:23.277Z,98464.94
2018-05-23T09:37:51.545Z,98469.72
2018-05-23T09:40:19.842Z,98474.34
2018-05-23T09:42:48.119Z,98482.77
2018-05-23T09:45:16.461Z,98487.42
2018-05-23T09:47:44.668Z,98483.49
2018-05-23T09:50:12.950Z,98483.00
2018-05-23T09:52:41.225Z,98483.41
2018-05-23T09:55:09.608Z,98488.11
2018-05-23T09:57:37.818Z,98486.67
2018-05-23T10:00:06.087Z,98484.78
2018-05-23T10:02:34.369Z,98490.41
2018-05-23T10:05:02.645Z,98491.35
2018-05-23T10:07:30.965Z,98482.23
2018-05-23T10:09:59.373Z,98486.75
2018-05-23T10:12:27.652Z,98492.55
2018-05-23T10:14:55.957Z,98493.57
2018-05-23T10:17:24.233Z,98491.17
2018-05-23T10:19:52.544Z,98495.47
2018-05-23T10:22:20.808Z,98500.19
2018-05-23T10:24:49.067Z,98498.39
2018-05-23T10:27:17.469Z,98494.56
2018-05-23T10:29:45.757Z,98497.66
2018-05-23T10:32:14.934Z,98491.98
2018-05-23T10:34:43.189Z,98497.06
2018-05-23T10:37:11.483Z,98491.47
2018-05-23T10:39:39.773Z,98489.36
2018-05-23T10:42:08.042Z,98481.34
2018-05-23T10:44:36.318Z,98476.17
2018-05-23T10:47:04.619Z,98478.00
2018-05-23T10:49:32.918Z,98478.03
2018-05-23T10:52:02.052Z,98481.20
2018-05-23T10:54:31.700Z,98471.45
2018-05-23T10:57:00.079Z,98467.29
2018-05-23T10:59:28.639Z,98473.43
2018-05-23T11:01:56.939Z,98471.30
2018-05-23T11:04:25.211Z,98466.16
2018-05-23T11:06:53.541Z,98469.75
2018-05-23T11:09:21.821Z,98471.59
2018-05-23T11:11:50.097Z,98476.63
2018-05-23T11:14:18.383Z,98473.21
2018-05-23T11:16:46.678Z,98476.69
2018-05-23T11:19:14.940Z,98479.61
2018-05-23T11:21:43.223Z,98475.13
2018-05-23T11:24:11.502Z,98480.16
2018-05-23T11:26:39.790Z,98482.23
2018-05-23T11:29:08.079Z,98483.08
2018-05-23T11:31:36.340Z,98474.77
2018-05-23T11:34:04.633Z,98477.73
2018-05-23T11:36:32.915Z,98474.31
2018-05-23T11:39:01.182Z,98472.17
2018-05-23T11:41:30.397Z,98469.63
2018-05-23T11:43:58.676Z,98466.19
2018-05-23T11:46:27.061Z,98468.93
2018-05-23T11:48:55.277Z,98467.08
2018-05-23T11:51:24.317Z,98458.78
2018-05-23T11:53:52.584Z,98460.36
2018-05-23T11:56:20.861Z,98453.95
2018-05-23T11:58:49.108Z,98457.03
2018-05-23T12:01:17.384Z,98447.10
2018-05-23T12:03:45.689Z,98447.41
2018-05-23T12:06:13.962Z,98443.95
2018-05-23T12:08:42.264Z,98441.03
2018-05-23T12:11:11.634Z,98444.08
2018-05-23T12:13:39.917Z,98439.89
2018-05-23T12:16:08.207Z,98435.33
2018-05-23T12:18:36.486Z,98438.43
2018-05-23T12:21:04.786Z,98442.10
2018-05-23T12:23:33.077Z,98434.12
2018-05-23T12:26:01.335Z,98432.90
2018-05-23T12:28:29.632Z,98429.77
2018-05-23T12:30:57.885Z,98426.30
2018-05-23T12:33:26.186Z,98432.96
2018-05-23T12:35:54.471Z,98435.41
2018-05-23T12:38:23.135Z,98426.00
2018-05-23T12:40:51.532Z,98431.86
2018-05-23T12:43:19.735Z,98432.31
2018-05-23T12:45:48.799Z,98433.95
2018-05-23T12:48:17.086Z,98431.51
2018-05-23T12:50:45.375Z,98427.88
2018-05-23T12:53:13.706Z,98431.61
2018-05-23T12:55:42.011Z,98427.30
2018-05-23T12:58:10.324Z,98435.20
2018-05-23T13:00:38.595Z,98431.15
2018-05-23T13:03:07.652Z,98431.87
2018-05-23T13:05:35.946Z,98434.14
2018-05-23T13:08:05.214Z,98432.90
2018-05-23T13:10:33.532Z,98431.43
2018-05-23T13:13:02.624Z,98433.20
2018-05-23T13:15:31.809Z,98429.17
2018-05-23T13:18:00.201Z,98434.41
2018-05-23T13:20:28.399Z,98426.52
2018-05-23T13:22:56.715Z,98430.02
2018-05-23T13:25:24.987Z,98423.93
2018-05-23T13:27:53.244Z,98423.47
2018-05-23T13:30:22.293Z,98426.61
2018-05-23T13:32:50.593Z,98418.13
2018-05-23T13:35:18.897Z,98419.72
2018-05-23T13:37:47.148Z,98420.79
2018-05-23T13:40:15.431Z,98417.13
2018-05-23T13:42:43.753Z,98413.02
2018-05-23T13:45:12.017Z,98411.88
2018-05-23T13:47:40.309Z,98413.34
2018-05-23T13:50:08.594Z,98414.44
2018-05-23T13:52:37.279Z,98414.25
2018-05-23T13:55:05.603Z,98408.44
2018-05-23T13:57:33.864Z,98405.44
2018-05-23T14:00:02.132Z,98401.39
2018-05-23T14:02:30.437Z,98393.49
2018-05-23T14:04:58.931Z,98390.91
2018-05-23T14:07:28.272Z,98391.64
2018-05-23T14:09:59.977Z,98382.77
2018-05-23T14:12:43.301Z,98382.06
2018-05-23T14:15:11.606Z,98377.83
2018-05-23T14:17:42.048Z,98375.36
2018-05-23T14:20:11.248Z,98368.69
2018-05-23T14:22:39.540Z,98362.34
2018-05-23T15:13:42.357Z,98327.38
2018-05-23T15:16:11.410Z,98322.07
2018-05-23T15:18:39.699Z,98329.47
2018-05-23T15:21:07.971Z,98323.02
2018-05-23T15:23:36.256Z,98320.53
2018-05-23T15:26:08.435Z,98328.04
2018-05-23T15:28:37.719Z,98332.40
2018-05-23T15:31:06.140Z,98322.48
2018-05-23T15:33:36.298Z,98324.93
2018-05-23T15:36:09.015Z,98323.32
2018-05-23T15:38:37.377Z,98328.25
2018-05-23T15:41:05.773Z,98331.81
2018-05-23T15:43:34.047Z,98326.28
2018-05-23T15:46:02.359Z,98330.08
2018-05-23T15:48:31.410Z,98327.98
2018-05-23T15:50:59.693Z,98337.45
2018-05-23T15:53:28.071Z,98326.19
2018-05-23T15:55:56.349Z,98326.13
2018-05-23T15:58:24.665Z,98321.48
2018-05-23T16:00:53.726Z,98316.16
2018-05-23T16:03:21.993Z,98308.59
2018-05-23T16:05:50.274Z,98311.69
2018-05-23T16:08:18.554Z,98289.55
2018-05-23T16:10:46.828Z,98295.61
2018-05-23T16:13:15.158Z,98290.92
2018-05-23T16:15:47.113Z,98293.66
2018-05-23T16:18:16.154Z,98315.42
2018-05-23T16:20:44.432Z,98345.86
2018-05-23T16:23:12.721Z,98408.67
2018-05-23T16:25:40.995Z,98421.52
2018-05-23T16:28:09.287Z,98470.70
2018-05-23T16:30:38.262Z,98477.70
2018-05-23T16:33:06.603Z,98469.48
2018-05-23T16:35:34.903Z,98458.94
2018-05-23T16:38:03.195Z,98463.89
2018-05-23T16:40:31.478Z,98449.38
2018-05-23T18:33:53.300Z,98528.47
2018-05-23T18:36:21.620Z,98531.69
2018-05-23T18:38:49.895Z,98529.39
2018-05-23T18:41:18.181Z,98531.44
2018-05-23T18:43:46.492Z,98528.34
2018-05-23T18:46:14.790Z,98528.21
2018-05-23T18:48:43.090Z,98524.18
2018-05-23T18:51:11.358Z,98525.46
2018-05-23T18:53:40.393Z,98522.44
2018-05-23T18:56:08.683Z,98523.40
2018-05-23T18:58:36.962Z,98522.95
2018-05-23T19:01:05.264Z,98524.08
2018-05-23T19:03:33.603Z,98522.34
2018-05-23T19:06:01.897Z,98527.35
2018-05-23T19:08:30.186Z,98519.77
2018-05-23T19:10:59.229Z,98511.12
2018-05-23T19:13:27.509Z,98510.69
2018-05-23T19:15:56.549Z,98510.11
2018-05-23T19:18:24.836Z,98511.16
2018-05-23T19:20:53.109Z,98512.52
2018-05-23T19:23:23.338Z,98513.16
2018-05-23T19:25:51.616Z,98514.92
2018-05-23T19:28:19.883Z,98513.94
2018-05-23T19:30:48.169Z,98516.74
2018-05-23T19:33:16.452Z,98516.91
2018-05-23T19:35:44.719Z,98516.37
2018-05-23T19:38:13.015Z,98521.95
2018-05-23T19:40:41.286Z,98522.88
2018-05-23T19:43:09.590Z,98530.20
2018-05-23T19:45:37.873Z,98536.84
2018-05-23T19:48:06.895Z,98530.72
2018-05-23T19:50:36.167Z,98540.13
2018-05-23T19:53:05.207Z,98541.34
2018-05-23T19:55:33.501Z,98544.98
2018-05-23T19:58:01.777Z,98548.20
2018-05-23T20:00:30.050Z,98558.67
2018-05-23T20:02:58.363Z,98557.00
2018-05-23T20:05:26.750Z,98556.28
2018-05-23T20:07:59.272Z,98558.88
2018-05-23T20:10:27.550Z,98563.62
2018-05-23T20:12:55.820Z,98565.38
2018-05-23T20:15:24.128Z,98568.30
2018-05-23T20:17:53.201Z,98565.63
2018-05-23T20:20:21.503Z,98569.04
2018-05-23T20:22:49.769Z,98564.77
2018-05-23T20:25:18.032Z,98567.23
2018-05-23T20:27:46.360Z,98566.80
2018-05-23T20:30:14.644Z,98563.23
2018-05-23T20:32:42.962Z,98557.30
2018-05-23T20:35:11.235Z,98558.31
2018-05-23T20:37:39.510Z,98557.75
2018-05-23T20:40:07.860Z,98557.73
2018-05-23T20:42:36.898Z,98554.13
2018-05-23T20:45:05.216Z,98551.59
2018-05-23T20:47:33.480Z,98554.79
2018-05-23T20:50:01.786Z,98549.81
2018-05-23T20:52:30.072Z,98545.82
2018-05-23T20:54:58.360Z,98542.72
2018-05-23T20:57:26.653Z,98545.13
2018-05-23T20:59:54.954Z,98547.25
2018-05-23T21:02:23.250Z,98551.92
2018-05-23T21:04:51.568Z,98549.98
2018-05-23T21:07:20.609Z,98546.43
2018-05-23T21:09:48.904Z,98548.56
2018-05-23T21:12:17.178Z,98547.88
2018-05-23T21:14:45.473Z,98552.72
2018-05-23T21:17:13.781Z,98549.41
2018-05-23T21:19:42.848Z,98551.13
2018-05-23T21:22:11.163Z,98554.57
2018-05-23T21:24:39.425Z,98550.30
2018-05-23T21:27:07.716Z,98550.69
2018-05-23T21:29:36.022Z,98552.87
2018-05-23T21:32:04.305Z,98550.16
2018-05-23T21:34:32.699Z,98546.96
2018-05-23T21:37:01.686Z,98549.48
2018-05-23T21:39:29.945Z,98546.38
2018-05-23T21:41:58.290Z,98551.91
2018-05-23T21:44:27.313Z,98543.53
2018-05-23T21:46:55.622Z,98538.70
2018-05-23T21:49:23.891Z,98543.55
2018-05-23T21:51:52.190Z,98549.38
2018-05-23T21:54:20.491Z,98550.51
2018-05-23T21:56:48.790Z,98548.70
2018-05-23T21:59:17.113Z,98554.55
2018-05-23T22:01:46.281Z,98548.97
2018-05-23T22:04:14.557Z,98554.66
2018-05-23T22:06:42.856Z,98560.19
2018-05-23T22:09:11.140Z,98557.25
2018-05-23T22:11:39.429Z,98560.08
2018-05-23T22:14:07.686Z,98561.19
2018-05-23T22:16:35.953Z,98552.91
2018-05-23T22:19:04.275Z,98552.67
2018-05-23T22:21:32.559Z,98549.43
2018-05-23T22:24:00.861Z,98552.56
2018-05-23T22:26:29.127Z,98551.77
2018-05-23T22:28:57.385Z,98539.27
2018-05-23T22:31:25.676Z,98546.23
2018-05-23T22:33:54.433Z,98546.77
2018-05-23T22:36:22.744Z,98545.17
2018-05-23T22:38:51.015Z,98553.83
2018-05-23T22:41:19.297Z,98547.38
2018-05-23T22:43:47.596Z,98548.58
2018-05-23T22:46:15.872Z,98544.23
2018-05-23T22:48:44.922Z,98554.16
2018-05-23T22:51:13.188Z,98552.66
2018-05-23T22:53:41.463Z,98548.80
2018-05-23T22:56:09.786Z,98547.69
2018-05-23T22:58:38.054Z,98548.80
2018-05-23T23:01:07.138Z,98558.52
2018-05-23T23:03:36.213Z,98551.92
2018-05-23T23:06:04.477Z,98550.12
2018-05-23T23:08:32.755Z,98556.30
2018-05-23T23:11:01.041Z,98547.27
2018-05-23T23:13:29.350Z,98549.38
2018-05-23T23:15:57.624Z,98544.94
2018-05-23T23:18:25.907Z,98545.42
2018-05-23T23:20:54.277Z,98537.64
2018-05-23T23:23:22.557Z,98536.03
2018-05-23T23:25:50.868Z,98529.92
2018-05-23T23:28:19.141Z,98532.48
2018-05-23T23:30:47.420Z,98536.86
2018-05-23T23:33:15.704Z,98533.08
2018-05-23T23:35:43.974Z,98529.92
2018-05-23T23:38:13.093Z,98530.67
2018-05-23T23:40:41.380Z,98529.84
2018-05-23T23:43:09.646Z,98528.42
2018-05-23T23:45:37.947Z,98523.05
2018-05-23T23:48:06.226Z,98527.80
2018-05-23T23:50:34.515Z,98528.13
2018-05-23T23:53:02.797Z,98530.67
2018-05-23T23:55:31.083Z,98533.49
2018-05-23T23:57:59.353Z,98525.89
